Terminal Aerodrome Forecast
Issued by NWS Shreveport, LA

Home | Current Version | Previous Version | Text Only | Print | Product List | Glossary On
Versions: 1 2 3 4 5 6 7 8 9 10 11 12 13 14
000
FTUS44 KSHV 170500
TAFLFK
TAF
KLFK 170525Z 1706/1806 12004KT P6SM OVC250
     FM171000 11004KT P6SM SCT025 BKN250
      TEMPO 1710/1713 BKN020
     FM171300 10005KT P6SM BKN020
     FM171600 10007KT P6SM SCT030 BKN035
     FM172000 10007KT P6SM SCT040 SCT120 BKN250
     FM180000 VRB04KT P6SM FEW040 SCT100 BKN250=

USA.gov is the U.S. government's official web portal to all federal, state and local government web resources and services.